Time;durP1;ratioP1;P1;durP2;ratioP2;P2;SDS_P1;SDS_P2;PMS_P1;PMS_P2;Temp;Humidity;BMP_temperature;BMP_pressure;BME280_temperature;BME280_humidity;BME280_pressure;Samples;Min_cycle;Max_cycle;Signal;HPM_P1;HPM_P2
2023/12/13 00:01:25;;;;;;;;;6.67;3.00;;;;;10.77;88.98;99258.16;5059754;28;45352;-86
2023/12/13 00:03:52;;;;;;;;;4.67;4.00;;;;;10.72;88.69;99235.56;5059681;28;45572;-88
2023/12/13 00:06:17;;;;;;;;;4.33;2.00;;;;;10.85;88.86;99262.88;5074410;28;46421;-87
2023/12/13 00:08:42;;;;;;;;;2.00;1.00;;;;;10.67;89.18;99229.72;5080549;28;45406;-88
2023/12/13 00:11:08;;;;;;;;;3.00;1.00;;;;;10.78;89.00;99243.03;5059765;28;45374;-88
2023/12/13 00:13:34;;;;;;;;;1.00;1.00;;;;;10.76;88.57;99245.81;5060577;28;45585;-88
2023/12/13 00:16:01;;;;;;;;;4.00;4.00;;;;;10.83;88.22;99259.50;5061083;27;45410;-88
2023/12/13 00:18:26;;;;;;;;;3.67;1.00;;;;;10.59;88.54;99212.59;5050165;28;45665;-88
2023/12/13 00:20:52;;;;;;;;;2.67;1.00;;;;;10.84;87.54;99250.56;5057357;28;44778;-87
2023/12/13 00:23:17;;;;;;;;;1.33;1.00;;;;;10.77;87.63;99246.66;5073611;28;44795;-87
2023/12/13 00:25:43;;;;;;;;;3.00;1.00;;;;;10.63;87.47;99215.84;5071368;28;45390;-88
2023/12/13 00:28:08;;;;;;;;;5.33;1.00;;;;;10.62;87.93;99217.66;5065097;28;45944;-87
2023/12/13 00:30:33;;;;;;;;;1.00;1.00;;;;;10.68;88.42;99234.97;5082614;28;48877;-87
2023/12/13 00:32:59;;;;;;;;;1.33;1.33;;;;;10.70;87.74;99240.16;5078219;27;45578;-87
2023/12/13 00:35:25;;;;;;;;;1.00;1.00;;;;;10.69;87.76;99238.47;5070238;28;45418;-85
2023/12/13 00:37:51;;;;;;;;;1.67;0.67;;;;;10.50;87.61;99218.59;5082417;28;45176;-88
2023/12/13 00:40:18;;;;;;;;;2.67;1.00;;;;;10.53;87.87;99213.03;5070339;27;45715;-88
2023/12/13 00:42:44;;;;;;;;;2.00;1.00;;;;;10.65;86.73;99237.84;5060351;28;45432;-88
2023/12/13 00:45:10;;;;;;;;;1.00;1.00;;;;;10.38;87.25;99187.66;5059195;28;46314;-86
2023/12/13 00:47:35;;;;;;;;;2.67;1.33;;;;;10.44;87.42;99202.31;5059228;28;45439;-87
2023/12/13 00:50:00;;;;;;;;;1.67;1.67;;;;;10.47;87.10;99205.56;5062548;28;45393;-87
2023/12/13 00:52:26;;;;;;;;;2.67;2.67;;;;;10.64;87.57;99225.50;5088081;28;45386;-87
2023/12/13 00:54:52;;;;;;;;;1.00;1.00;;;;;10.58;87.41;99221.53;5079537;28;45414;-88
2023/12/13 00:57:17;;;;;;;;;3.00;2.00;;;;;10.61;87.73;99221.28;5082544;27;45486;-87
2023/12/13 00:59:43;;;;;;;;;1.67;1.67;;;;;10.60;88.10;99219.59;5079006;27;45315;-88
2023/12/13 01:02:08;;;;;;;;;2.00;2.00;;;;;10.34;88.56;99180.91;5063161;28;45569;-87
2023/12/13 01:04:38;;;;;;;;;1.33;1.33;;;;;10.41;88.49;99203.38;5062180;28;46106;-87
2023/12/13 01:07:03;;;;;;;;;2.33;1.00;;;;;10.47;88.52;99202.91;5075625;28;45522;-87
2023/12/13 01:09:28;;;;;;;;;1.00;1.00;;;;;10.51;88.48;99214.97;5063766;28;45460;-88
2023/12/13 01:11:54;;;;;;;;;4.67;4.00;;;;;10.37;88.60;99195.75;5081657;28;45636;-87
2023/12/13 01:14:19;;;;;;;;;4.00;4.00;;;;;10.42;87.60;99213.06;5081293;27;47255;-88
2023/12/13 01:16:44;;;;;;;;;10.00;5.00;;;;;10.39;88.84;99207.94;5087998;27;45358;-88
2023/12/13 01:19:10;;;;;;;;;10.00;8.00;;;;;10.44;88.58;99216.44;5090344;28;45485;-87
2023/12/13 01:21:35;;;;;;;;;9.75;8.25;;;;;10.45;88.19;99219.94;5070188;28;45450;-88
2023/12/13 01:24:01;;;;;;;;;11.75;10.00;;;;;10.36;88.94;99210.84;5061934;28;45749;-87
2023/12/13 01:26:26;;;;;;;;;12.50;8.25;;;;;10.24;88.23;99190.53;5061478;28;45428;-88
2023/12/13 01:28:51;;;;;;;;;8.75;7.00;;;;;10.44;88.27;99219.09;5061778;28;45498;-88
2023/12/13 01:31:17;;;;;;;;;4.75;4.75;;;;;10.09;88.21;99159.81;5076870;28;45489;-88
2023/12/13 01:33:42;;;;;;;;;9.33;4.33;;;;;10.10;87.99;99169.47;5081976;28;45555;-87
2023/12/13 01:36:08;;;;;;;;;3.67;3.00;;;;;10.15;88.51;99180.56;5081633;28;45437;-88
2023/12/13 01:38:35;;;;;;;;;3.33;2.00;;;;;10.29;87.82;99204.34;5082240;28;45211;-88
2023/12/13 01:41:01;;;;;;;;;2.00;2.00;;;;;10.26;88.03;99199.22;5081155;27;45279;-86
2023/12/13 01:43:26;;;;;;;;;2.33;1.00;;;;;10.33;88.05;99211.09;5065793;28;45496;-87
2023/12/13 01:45:53;;;;;;;;;1.33;1.00;;;;;10.24;88.07;99206.47;5063122;27;45314;-87
2023/12/13 01:48:22;;;;;;;;;4.33;1.33;;;;;10.03;87.94;99177.91;5043431;28;45339;-88
2023/12/13 01:50:48;;;;;;;;;4.33;2.00;;;;;10.18;88.02;99209.59;5062042;28;45311;-87
2023/12/13 01:53:15;;;;;;;;;2.00;1.00;;;;;10.21;88.06;99206.69;5061671;28;45423;-88
2023/12/13 01:55:41;;;;;;;;;1.00;1.00;;;;;10.31;88.13;99228.97;5072405;27;45205;-89
2023/12/13 01:58:07;;;;;;;;;1.00;1.00;;;;;10.31;88.03;99236.94;5082266;27;45495;-88
2023/12/13 02:00:34;;;;;;;;;0.33;0.33;;;;;10.15;88.14;99208.00;5063191;27;45169;-87
2023/12/13 02:02:59;;;;;;;;;5.00;1.00;;;;;10.30;87.99;99238.75;5082625;27;45450;-87
2023/12/13 02:05:26;;;;;;;;;5.00;2.00;;;;;10.19;88.60;99221.91;5081210;27;45358;-88
2023/12/13 02:07:51;;;;;;;;;5.00;2.00;;;;;10.23;87.43;99223.38;5081836;28;45552;-88
2023/12/13 02:10:17;;;;;;;;;5.00;2.00;;;;;10.08;87.91;99184.69;5081855;28;45625;-87
2023/12/13 02:12:43;;;;;;;;;3.33;1.00;;;;;10.36;87.32;99224.16;5074891;27;45435;-86
2023/12/13 02:15:10;;;;;;;;;2.00;1.00;;;;;10.65;87.08;99243.16;5044433;28;45562;-89
2023/12/13 02:17:35;;;;;;;;;1.00;1.00;;;;;10.55;85.86;99215.63;5061656;28;45346;-87
2023/12/13 02:20:01;;;;;;;;;2.67;2.00;;;;;10.64;85.43;99229.00;5061251;28;45434;-87
2023/12/13 02:22:26;;;;;;;;;2.67;0.00;;;;;10.47;85.53;99202.06;5062050;28;45494;-88
2023/12/13 02:24:54;;;;;;;;;4.67;3.00;;;;;10.47;85.21;99213.53;5045430;28;45506;-87
2023/12/13 02:27:21;;;;;;;;;2.00;1.00;;;;;10.41;85.27;99215.81;5075672;28;44784;-88
2023/12/13 02:29:48;;;;;;;;;2.00;1.67;;;;;10.36;86.07;99205.53;5065709;28;45338;-86
2023/12/13 02:32:14;;;;;;;;;1.33;1.00;;;;;10.35;85.20;99209.16;5061267;28;45522;-87
2023/12/13 02:34:41;;;;;;;;;4.67;1.00;;;;;10.30;85.78;99204.22;5062414;28;45703;-88
2023/12/13 02:37:06;;;;;;;;;1.00;1.00;;;;;10.28;86.03;99197.31;5063951;28;45494;-88
2023/12/13 02:39:32;;;;;;;;;1.67;1.00;;;;;10.35;85.94;99211.81;5062977;27;45648;-87
2023/12/13 02:41:57;;;;;;;;;1.67;0.00;;;;;10.32;86.59;99220.03;5061720;28;45554;-87
2023/12/13 02:44:23;;;;;;;;;2.00;0.00;;;;;10.31;86.00;99213.03;5058711;28;45208;-88
2023/12/13 02:46:48;;;;;;;;;8.67;2.00;;;;;10.31;86.38;99213.88;5060483;28;45604;-87
2023/12/13 02:49:13;;;;;;;;;1.67;1.00;;;;;10.26;86.85;99216.03;5042303;28;45628;-87
2023/12/13 02:51:39;;;;;;;;;4.00;0.33;;;;;10.07;87.39;99188.31;5059954;28;45623;-87
2023/12/13 02:54:04;;;;;;;;;2.00;1.00;;;;;9.94;86.93;99178.63;5076331;27;45413;-86
2023/12/13 02:56:30;;;;;;;;;2.00;0.33;;;;;10.10;86.96;99214.63;5046561;28;45331;-87
2023/12/13 02:58:55;;;;;;;;;5.00;2.00;;;;;10.08;88.23;99198.81;5041709;28;45412;-87
2023/12/13 03:01:23;;;;;;;;;3.00;2.00;;;;;9.99;87.33;99197.69;5041647;28;48051;-86
2023/12/13 03:03:48;;;;;;;;;5.33;1.33;;;;;10.01;87.19;99203.72;5074393;28;45515;-87
2023/12/13 03:06:13;;;;;;;;;5.00;2.33;;;;;10.00;88.01;99207.34;5057560;28;45494;-87
2023/12/13 03:08:39;;;;;;;;;3.00;1.00;;;;;9.99;87.65;99202.16;5058840;28;45748;-87
2023/12/13 03:11:04;;;;;;;;;2.33;1.33;;;;;9.66;87.81;99144.50;5060199;28;46082;-87
2023/12/13 03:13:30;;;;;;;;;1.00;1.00;;;;;9.80;86.90;99181.47;5078801;27;45323;-87
2023/12/13 03:15:55;;;;;;;;;2.50;0.50;;;;;9.77;88.41;99172.91;5069987;27;45457;-86
2023/12/13 03:18:20;;;;;;;;;2.33;1.00;;;;;9.67;87.23;99154.16;5059609;28;45293;-87
2023/12/13 03:20:47;;;;;;;;;0.00;0.00;;;;;9.74;87.51;99163.31;5051761;28;48060;-87
2023/12/13 03:23:13;;;;;;;;;1.25;1.25;;;;;9.73;87.65;99161.63;5046344;28;45462;-88
2023/12/13 03:25:38;;;;;;;;;2.00;0.00;;;;;9.85;87.04;99181.94;5069018;27;45251;-87
2023/12/13 03:28:03;;;;;;;;;0.00;0.00;;;;;9.67;87.46;99159.47;5081000;28;45240;-86
2023/12/13 03:30:29;;;;;;;;;2.00;0.75;;;;;9.81;88.15;99185.81;5080415;28;45953;-88
2023/12/13 03:32:54;;;;;;;;;1.00;1.00;;;;;9.79;87.76;99185.09;5080493;28;45329;-87
2023/12/13 03:35:19;;;;;;;;;0.33;0.33;;;;;9.79;87.50;99181.59;5074871;27;45493;-87
2023/12/13 03:37:45;;;;;;;;;0.67;0.67;;;;;9.73;86.71;99170.44;5042352;28;46718;-87
2023/12/13 03:40:11;;;;;;;;;0.33;0.00;;;;;9.75;87.82;99167.66;5063798;28;46021;-86
2023/12/13 03:42:36;;;;;;;;;1.00;1.00;;;;;9.80;87.17;99176.16;5067461;28;45338;-87
2023/12/13 03:45:01;;;;;;;;;1.00;1.00;;;;;9.56;86.77;99144.34;5082467;28;44788;-87
2023/12/13 03:47:27;;;;;;;;;2.00;0.00;;;;;9.76;86.82;99179.97;5074018;28;45328;-86
2023/12/13 03:49:52;;;;;;;;;8.00;1.00;;;;;9.61;87.59;99157.25;5065928;28;46547;-87
2023/12/13 03:52:18;;;;;;;;;1.50;0.25;;;;;9.74;86.91;99168.63;5061344;27;45495;-85
2023/12/13 03:54:43;;;;;;;;;0.50;0.00;;;;;9.78;87.55;99177.25;5059677;28;45330;-86
2023/12/13 03:57:08;;;;;;;;;3.00;2.00;;;;;9.58;86.78;99133.59;5059831;27;45229;-86
2023/12/13 03:59:34;;;;;;;;;1.50;1.00;;;;;9.75;87.13;99162.34;5059446;28;46160;-87
2023/12/13 04:01:59;;;;;;;;;1.00;1.00;;;;;9.78;87.28;99162.16;5066780;28;45161;-86
2023/12/13 04:04:24;;;;;;;;;2.50;1.25;;;;;9.80;88.22;99173.50;5069592;28;45281;-88
2023/12/13 04:06:50;;;;;;;;;1.67;1.67;;;;;9.76;87.85;99164.06;5043859;28;46186;-86
2023/12/13 04:09:15;;;;;;;;;1.00;1.00;;;;;9.82;87.15;99176.88;5042855;28;47198;-87
2023/12/13 04:11:40;;;;;;;;;0.00;0.00;;;;;9.80;87.50;99170.84;5059728;28;59993;-89
2023/12/13 04:14:06;;;;;;;;;7.50;0.00;;;;;9.60;87.76;99150.25;5060048;28;45308;-87
2023/12/13 04:16:32;;;;;;;;;4.00;2.25;;;;;9.67;87.15;99155.00;5060595;28;45599;-88
2023/12/13 04:18:58;;;;;;;;;3.75;1.00;;;;;9.68;87.92;99158.50;5060469;28;46165;-88
2023/12/13 04:21:23;;;;;;;;;2.00;2.00;;;;;9.61;89.12;99152.78;5060447;28;45733;-88
2023/12/13 04:23:48;;;;;;;;;5.25;1.00;;;;;9.59;89.23;99152.06;5064612;27;45522;-88
2023/12/13 04:26:14;;;;;;;;;0.00;0.00;;;;;9.67;88.35;99172.72;5049757;28;45317;-87
2023/12/13 04:28:39;;;;;;;;;1.00;1.00;;;;;9.72;89.23;99174.06;5058637;28;46399;-86
2023/12/13 04:31:05;;;;;;;;;2.00;1.00;;;;;9.55;88.16;99134.69;5061934;28;45547;-86
2023/12/13 04:33:31;;;;;;;;;1.00;1.00;;;;;9.79;88.46;99163.00;5068752;27;45323;-87
2023/12/13 04:35:59;;;;;;;;;3.67;2.00;;;;;9.67;87.98;99138.22;5083830;28;45413;-86
2023/12/13 04:38:24;;;;;;;;;3.00;1.00;;;;;9.82;88.45;99163.59;5083027;27;45358;-87
2023/12/13 04:40:50;;;;;;;;;4.00;1.00;;;;;9.80;87.63;99148.75;5068344;27;45238;-87
2023/12/13 04:43:15;;;;;;;;;3.67;0.00;;;;;9.68;88.03;99129.28;5073253;27;45331;-86
2023/12/13 04:45:40;;;;;;;;;1.00;1.00;;;;;9.67;87.66;99127.59;5059385;28;45247;-87
2023/12/13 04:48:06;;;;;;;;;1.75;0.25;;;;;9.66;88.28;99124.09;5061687;28;45380;-87
2023/12/13 04:50:31;;;;;;;;;1.75;1.75;;;;;9.91;87.71;99168.22;5061448;28;45295;-87
2023/12/13 04:52:57;;;;;;;;;1.50;0.00;;;;;9.88;88.53;99164.94;5062249;28;45248;-86
2023/12/13 04:55:22;;;;;;;;;1.00;1.00;;;;;9.83;87.91;99160.00;5062418;28;45477;-88
2023/12/13 04:57:47;;;;;;;;;1.75;1.00;;;;;9.56;88.08;99122.25;5043923;28;47262;-87
2023/12/13 05:00:13;;;;;;;;;3.00;1.75;;;;;9.72;88.93;99157.28;5062963;28;45280;-87
2023/12/13 05:02:39;;;;;;;;;9.50;1.00;;;;;9.70;88.53;99156.56;5063686;28;45308;-88
2023/12/13 05:05:05;;;;;;;;;3.75;1.00;;;;;9.51;88.97;99129.72;5046078;28;45691;-88
2023/12/13 05:07:32;;;;;;;;;1.00;1.00;;;;;9.59;88.96;99135.28;5050592;28;46875;-87
2023/12/13 05:09:58;;;;;;;;;3.25;1.00;;;;;9.71;88.32;99152.94;5063412;27;45548;-88
2023/12/13 05:12:23;;;;;;;;;2.25;1.00;;;;;9.67;88.49;99146.19;5044493;28;45533;-88
2023/12/13 05:14:51;;;;;;;;;2.50;1.00;;;;;9.58;88.70;99133.59;5062512;28;45562;-87
2023/12/13 05:17:16;;;;;;;;;1.00;1.00;;;;;9.74;88.87;99156.22;5060981;28;45699;-87
2023/12/13 05:19:41;;;;;;;;;2.50;1.00;;;;;9.56;88.12;99125.75;5071530;27;45215;-87
2023/12/13 05:22:07;;;;;;;;;1.00;1.00;;;;;9.85;88.26;99150.09;5082765;28;45236;-87
2023/12/13 05:24:32;;;;;;;;;2.50;1.00;;;;;9.90;87.56;99150.59;5077184;28;49892;-88
2023/12/13 05:26:58;;;;;;;;;2.50;1.75;;;;;9.86;87.18;99127.88;5043666;28;46005;-87
2023/12/13 05:29:23;;;;;;;;;2.00;0.50;;;;;9.98;87.08;99142.88;5061945;28;45405;-88
2023/12/13 05:31:51;;;;;;;;;1.00;1.00;;;;;9.92;87.08;99127.44;5062350;27;45350;-86
2023/12/13 05:34:17;;;;;;;;;1.00;1.00;;;;;9.91;87.40;99125.75;5069535;27;45407;-86
2023/12/13 05:36:42;;;;;;;;;2.00;0.67;;;;;9.87;87.24;99123.41;5062199;28;46281;-86
2023/12/13 05:39:07;;;;;;;;;3.67;1.00;;;;;9.89;87.39;99148.88;5074503;28;45243;-87
2023/12/13 05:41:33;;;;;;;;;3.00;1.00;;;;;9.82;87.42;99145.03;5065150;28;45255;-88
2023/12/13 05:43:58;;;;;;;;;1.00;1.00;;;;;9.83;87.39;99138.75;5064402;27;45488;-88
2023/12/13 05:46:26;;;;;;;;;3.00;3.00;;;;;9.61;86.79;99089.06;5062390;28;46542;-88
2023/12/13 05:48:52;;;;;;;;;2.00;0.00;;;;;9.86;86.48;99127.88;5063885;28;45416;-88
2023/12/13 05:51:17;;;;;;;;;2.00;1.00;;;;;9.68;87.43;99094.78;5072595;28;45260;-88
2023/12/13 05:53:42;;;;;;;;;4.33;0.67;;;;;9.82;86.69;99133.56;5084223;28;45633;-88
2023/12/13 05:56:09;;;;;;;;;1.00;0.00;;;;;9.73;87.01;99122.66;5084310;27;46464;-87
2023/12/13 05:58:35;;;;;;;;;8.00;1.00;;;;;9.59;87.98;99108.75;5082598;27;45327;-89
2023/12/13 06:01:00;;;;;;;;;3.00;2.75;;;;;9.61;87.44;99114.78;5071887;27;45263;-88
2023/12/13 06:03:25;;;;;;;;;4.00;2.00;;;;;9.49;87.83;99105.09;5072930;27;45560;-87
2023/12/13 06:05:51;;;;;;;;;2.67;2.00;;;;;9.40;87.96;99094.22;5045827;28;48399;-86
2023/12/13 06:08:16;;;;;;;;;6.25;1.00;;;;;9.53;88.08;99119.84;5062104;28;45267;-86
2023/12/13 06:10:41;;;;;;;;;2.75;1.75;;;;;9.23;87.91;99081.34;5046303;28;47194;-87
2023/12/13 06:13:07;;;;;;;;;1.00;1.00;;;;;9.43;88.23;99115.22;5082110;28;45639;-88
2023/12/13 06:15:32;;;;;;;;;1.00;1.00;;;;;9.43;87.79;99117.88;5082152;28;45228;-87
2023/12/13 06:17:58;;;;;;;;;1.00;1.00;;;;;9.25;87.78;99087.41;5080317;27;45368;-86
2023/12/13 06:20:23;;;;;;;;;1.00;1.00;;;;;9.13;88.37;99073.25;5081110;27;45513;-87
2023/12/13 06:22:48;;;;;;;;;1.00;1.00;;;;;9.32;88.11;99106.34;5061426;28;45255;-87
2023/12/13 06:25:14;;;;;;;;;3.00;1.00;;;;;9.44;87.72;99130.16;5061593;28;47457;-87
2023/12/13 06:27:39;;;;;;;;;0.00;0.00;;;;;9.45;88.64;99131.00;5078285;27;45264;-86
2023/12/13 06:30:05;;;;;;;;;3.00;1.50;;;;;9.44;87.85;99130.16;5079572;27;58619;-87
2023/12/13 06:32:30;;;;;;;;;2.50;1.25;;;;;9.37;87.37;99115.66;5078047;27;45233;-87
2023/12/13 06:34:56;;;;;;;;;3.25;1.00;;;;;9.46;88.14;99130.91;5059527;28;45482;-86
2023/12/13 06:37:21;;;;;;;;;1.25;0.75;;;;;9.39;87.76;99126.19;5060679;27;45457;-86
2023/12/13 06:39:47;;;;;;;;;1.67;1.67;;;;;9.44;87.38;99138.13;5061060;28;45292;-85
2023/12/13 06:42:12;;;;;;;;;0.67;0.67;;;;;9.36;87.95;99124.56;5061070;28;45567;-87
2023/12/13 06:44:39;;;;;;;;;5.33;2.00;;;;;9.37;87.66;99125.41;5060975;28;45283;-87
2023/12/13 06:47:05;;;;;;;;;2.00;0.00;;;;;9.39;87.82;99140.28;5073300;28;45292;-88
2023/12/13 06:49:32;;;;;;;;;2.67;0.67;;;;;9.28;86.92;99110.19;5066438;28;45330;-91
2023/12/13 06:51:58;;;;;;;;;5.00;0.67;;;;;9.37;87.77;99138.69;5082495;28;45321;-91
2023/12/13 06:54:24;;;;;;;;;1.33;1.33;;;;;9.23;87.67;99123.78;5083264;27;46505;-89
2023/12/13 06:56:49;;;;;;;;;2.00;2.00;;;;;9.35;87.21;99145.91;5083273;28;45433;-88
2023/12/13 06:59:15;;;;;;;;;2.67;1.00;;;;;9.20;87.11;99126.66;5082829;27;45833;-88
2023/12/13 07:01:41;;;;;;;;;2.00;1.00;;;;;9.14;87.07;99104.13;5082901;28;45532;-87
2023/12/13 07:04:06;;;;;;;;;1.00;1.00;;;;;9.40;87.40;99141.97;5068657;28;48755;-90
2023/12/13 07:06:32;;;;;;;;;1.50;0.75;;;;;9.19;87.15;99102.91;5069821;28;45283;-90
2023/12/13 07:08:59;;;;;;;;;1.50;1.00;;;;;9.23;86.01;99096.41;5089833;27;45531;-86
2023/12/13 07:11:25;;;;;;;;;6.50;2.75;;;;;9.60;86.55;99142.28;5096371;27;45410;-91
2023/12/13 07:14:16;;;;;;;;;3.50;2.75;;;;;9.18;85.87;99080.84;5048225;27;45155;-90
2023/12/13 07:16:45;;;;;;;;;3.33;1.67;;;;;9.54;86.47;99125.03;5013138;27;44774;-90
2023/12/13 07:19:11;;;;;;;;;2.33;2.00;;;;;9.53;85.36;99106.56;4987848;28;45268;-85
2023/12/13 07:21:36;;;;;;;;;1.67;0.33;;;;;9.56;85.82;99114.28;5002813;28;45539;-87
2023/12/13 07:24:03;;;;;;;;;2.67;2.00;;;;;9.73;85.14;99135.09;5017078;27;45455;-85
2023/12/13 07:26:29;;;;;;;;;8.00;4.67;;;;;9.91;85.22;99157.59;5035360;27;45249;-86
2023/12/13 07:28:55;;;;;;;;;2.00;1.00;;;;;9.94;84.75;99146.75;5010491;27;45806;-88
2023/12/13 07:31:20;;;;;;;;;3.00;1.33;;;;;9.71;84.88;99116.63;5053069;27;45709;-83
2023/12/13 07:33:46;;;;;;;;;3.00;2.00;;;;;9.66;84.90;99116.13;5105991;27;46370;-85
2023/12/13 07:36:15;;;;;;;;;6.00;1.67;;;;;9.72;84.24;99118.31;5040436;27;45455;-88
2023/12/13 07:38:42;;;;;;;;;4.00;1.00;;;;;9.68;84.50;99113.38;5026788;27;45437;-86
2023/12/13 07:41:08;;;;;;;;;3.00;1.75;;;;;10.01;83.73;99155.91;5023772;27;45432;-86
2023/12/13 07:43:34;;;;;;;;;2.50;2.25;;;;;9.91;84.05;99131.06;5026805;27;46214;-88
2023/12/13 07:45:59;;;;;;;;;3.67;2.00;;;;;10.01;82.81;99147.94;5030684;27;45403;-89
2023/12/13 07:48:24;;;;;;;;;3.00;1.00;;;;;9.96;82.77;99147.47;5052369;27;45378;-87
2023/12/13 07:50:51;;;;;;;;;2.33;1.67;;;;;9.73;82.69;99111.19;5043290;27;46345;-87
2023/12/13 07:53:17;;;;;;;;;2.00;1.67;;;;;10.05;82.42;99160.06;5007877;27;45668;-87
2023/12/13 07:55:42;;;;;;;;;1.33;1.33;;;;;9.78;82.27;99125.00;5019561;27;45463;-87
2023/12/13 07:58:08;;;;;;;;;3.00;3.00;;;;;9.93;82.46;99139.75;5017991;27;45404;-88
2023/12/13 08:00:33;;;;;;;;;3.00;1.00;;;;;10.03;82.10;99153.16;5040221;27;45486;-87
2023/12/13 08:02:59;;;;;;;;;3.75;1.25;;;;;10.08;82.25;99152.81;5035073;27;46779;-88
2023/12/13 08:05:25;;;;;;;;;3.00;2.00;;;;;10.29;81.59;99183.09;5015394;27;45458;-88
2023/12/13 08:07:50;;;;;;;;;0.33;0.33;;;;;10.33;81.62;99182.72;5011496;28;45417;-87
2023/12/13 08:10:16;;;;;;;;;3.00;2.00;;;;;10.29;81.21;99178.63;5102582;27;45341;-90
2023/12/13 08:12:42;;;;;;;;;3.67;2.00;;;;;10.28;81.30;99171.56;5038862;27;46916;-87
2023/12/13 08:15:09;;;;;;;;;1.67;1.67;;;;;10.19;81.46;99144.88;5024776;27;45575;-89
2023/12/13 08:17:34;;;;;;;;;3.33;2.00;;;;;10.50;81.01;99202.66;5010148;28;45755;-90
2023/12/13 08:20:00;;;;;;;;;5.50;5.50;;;;;10.36;80.20;99171.00;5013811;27;45412;-86
2023/12/13 08:22:26;;;;;;;;;1.00;1.00;;;;;10.58;79.96;99202.91;5014401;28;45511;-86
2023/12/13 08:24:51;;;;;;;;;3.67;2.00;;;;;10.57;79.23;99209.19;5006524;27;44927;-86
2023/12/13 08:27:16;;;;;;;;;4.75;4.75;;;;;10.59;79.37;99212.59;4999617;27;45401;-88
2023/12/13 08:29:42;;;;;;;;;2.00;2.00;;;;;10.44;79.77;99187.19;4985544;28;45760;-86
2023/12/13 08:32:07;;;;;;;;;2.33;2.00;;;;;10.62;79.07;99216.81;5034446;27;46458;-86
2023/12/13 08:34:33;;;;;;;;;3.25;3.00;;;;;10.57;79.17;99203.88;5023416;28;45514;-91
2023/12/13 08:37:01;;;;;;;;;7.67;3.00;;;;;10.59;78.99;99206.41;5044349;27;44748;-91
2023/12/13 08:39:27;;;;;;;;;1.00;1.00;;;;;10.26;78.60;99152.25;5018983;27;45371;-89
2023/12/13 08:41:53;;;;;;;;;2.00;2.00;;;;;10.56;79.04;99211.97;5017347;28;45967;-90
2023/12/13 08:44:18;;;;;;;;;2.33;1.00;;;;;10.29;77.98;99154.69;5011869;27;45310;-90
2023/12/13 08:46:45;;;;;;;;;1.00;0.67;;;;;10.56;78.55;99199.53;5028645;28;45144;-92
2023/12/13 08:49:11;;;;;;;;;1.33;1.33;;;;;10.64;78.43;99221.03;5009169;28;45609;-91
2023/12/13 08:51:37;;;;;;;;;2.00;2.00;;;;;10.64;78.51;99215.72;5073650;27;47272;-91
2023/12/13 08:54:03;;;;;;;;;4.00;3.00;;;;;10.70;78.01;99213.56;5008966;28;46077;-93
2023/12/13 08:56:29;;;;;;;;;3.00;2.00;;;;;10.53;77.66;99189.13;5017920;28;44794;-90
2023/12/13 08:58:54;;;;;;;;;7.33;3.00;;;;;10.35;77.60;99145.38;4997234;28;45440;-89
2023/12/13 09:01:20;;;;;;;;;3.33;2.00;;;;;10.72;77.43;99196.53;5024250;27;46297;-91
2023/12/13 09:03:46;;;;;;;;;1.00;1.00;;;;;10.63;77.65;99181.28;5009723;27;45512;-92
2023/12/13 09:06:16;;;;;;;;;2.00;2.00;;;;;10.72;77.17;99193.00;5016642;27;44821;-93
2023/12/13 09:08:41;;;;;;;;;0.67;0.00;;;;;10.90;77.81;99231.44;5045638;27;45520;-92
2023/12/13 09:11:07;;;;;;;;;5.00;1.00;;;;;10.45;77.30;99146.38;5035077;27;47310;-91
2023/12/13 09:13:38;;;;;;;;;2.00;2.00;;;;;10.95;76.92;99233.75;5013956;27;45594;-92
2023/12/13 09:16:18;;;;;;;;;2.00;2.00;;;;;10.95;77.07;99233.75;5034828;27;44784;-90
2023/12/13 09:18:44;;;;;;;;;2.67;2.67;;;;;10.58;77.25;99176.34;5010059;27;45705;-91
2023/12/13 09:21:19;;;;;;;;;2.67;2.67;;;;;10.87;77.26;99221.06;5018558;28;45798;-91
2023/12/13 09:23:46;;;;;;;;;2.00;2.00;;;;;10.78;76.40;99203.16;5015911;27;45375;-91
2023/12/13 09:26:13;;;;;;;;;7.67;2.00;;;;;10.54;76.39;99172.19;5032191;27;44946;-93
2023/12/13 09:28:39;;;;;;;;;2.00;2.00;;;;;10.77;77.18;99196.16;5029340;27;45358;-92
2023/12/13 09:31:05;;;;;;;;;1.33;1.00;;;;;10.90;76.36;99204.84;4988438;28;45247;-90
2023/12/13 09:33:31;;;;;;;;;1.00;1.00;;;;;10.80;76.59;99206.53;4999518;28;44765;-90
2023/12/13 09:35:56;;;;;;;;;1.00;1.00;;;;;10.88;75.61;99212.09;4987208;28;45518;-82
2023/12/13 09:38:21;;;;;;;;;3.00;1.00;;;;;11.02;76.10;99250.91;5004607;28;44964;-86
2023/12/13 09:40:48;;;;;;;;;2.00;1.00;;;;;10.66;76.31;99190.81;5002427;28;45387;-85
2023/12/13 09:43:14;;;;;;;;;1.00;1.00;;;;;11.05;76.61;99251.50;5007971;27;45474;-90
2023/12/13 09:45:47;;;;;;;;;7.33;5.33;;;;;11.05;75.90;99240.88;4996028;28;45456;-89
2023/12/13 09:48:19;;;;;;;;;1.33;1.33;;;;;11.10;76.54;99253.81;5000374;28;45539;-85
2023/12/13 09:50:53;;;;;;;;;2.00;2.00;;;;;10.75;76.51;99187.44;5064730;27;48662;-87
2023/12/13 09:53:21;;;;;;;;;2.33;1.67;;;;;10.85;76.35;99217.69;5026025;27;45368;-85
2023/12/13 09:55:48;;;;;;;;;3.00;2.00;;;;;10.95;76.55;99245.25;5020712;28;46526;-89
2023/12/13 09:58:13;;;;;;;;;3.67;2.00;;;;;10.86;76.26;99220.22;5021102;27;45550;-88
2023/12/13 10:00:39;;;;;;;;;1.33;1.33;;;;;10.97;76.44;99232.66;5004729;28;45535;-90
2023/12/13 10:03:05;;;;;;;;;2.00;2.00;;;;;11.33;76.29;99270.59;5005893;27;45259;-90
2023/12/13 10:05:32;;;;;;;;;4.00;2.00;;;;;11.40;75.75;99255.84;5004357;27;45549;-85
2023/12/13 10:08:02;;;;;;;;;4.33;3.00;;;;;11.63;75.00;99273.47;5030113;27;45435;-90
2023/12/13 10:10:31;;;;;;;;;2.33;2.33;;;;;11.73;74.74;99266.41;5007960;27;45158;-88
2023/12/13 10:13:01;;;;;;;;;3.00;1.33;;;;;11.86;73.78;99266.28;5012276;28;45448;-88
2023/12/13 10:15:33;;;;;;;;;4.00;3.00;;;;;11.93;73.61;99261.28;4996295;28;45342;-87
2023/12/13 10:17:59;;;;;;;;;3.67;2.00;;;;;12.10;73.29;99277.56;5011648;27;45319;-87
2023/12/13 10:20:26;;;;;;;;;4.00;4.00;;;;;12.12;72.94;99269.47;5002824;27;46845;-86
2023/12/13 10:22:52;;;;;;;;;4.33;2.33;;;;;12.10;72.50;99277.56;4998315;28;45527;-87
2023/12/13 10:25:22;;;;;;;;;5.33;3.67;;;;;12.05;72.57;99273.59;5005574;27;45433;-85
2023/12/13 10:27:48;;;;;;;;;4.67;3.33;;;;;12.05;73.24;99284.25;4994517;27;45347;-85
2023/12/13 10:30:14;;;;;;;;;3.00;2.00;;;;;12.09;73.44;99291.00;5001714;28;46887;-86
2023/12/13 10:32:40;;;;;;;;;3.67;2.00;;;;;11.96;73.28;99290.34;5043703;27;45377;-85
2023/12/13 10:35:07;;;;;;;;;0.00;0.00;;;;;11.84;73.78;99275.34;5043927;27;45404;-85
2023/12/13 10:37:34;;;;;;;;;2.67;2.00;;;;;11.85;73.77;99293.03;5077159;27;45621;-85
2023/12/13 10:40:00;;;;;;;;;5.00;2.00;;;;;11.72;73.63;99288.69;5023820;27;45895;-85
2023/12/13 10:42:26;;;;;;;;;3.00;1.33;;;;;11.57;73.61;99281.09;5040410;27;45442;-87
2023/12/13 10:44:52;;;;;;;;;3.00;2.00;;;;;11.49;74.28;99279.91;5070775;27;45361;-85
2023/12/13 10:47:23;;;;;;;;;3.00;1.00;;;;;11.65;73.96;99308.81;5022301;27;45435;-89
2023/12/13 10:49:52;;;;;;;;;4.67;2.67;;;;;11.45;74.29;99290.91;4998930;27;46702;-87
2023/12/13 10:52:20;;;;;;;;;4.00;2.00;;;;;11.20;73.93;99249.47;5011021;28;45378;-87
2023/12/13 10:54:47;;;;;;;;;1.00;1.00;;;;;11.45;74.37;99313.06;5004766;28;44732;-88
2023/12/13 10:57:13;;;;;;;;;2.67;2.00;;;;;11.20;75.14;99274.25;5008306;27;45253;-88
2023/12/13 10:59:43;;;;;;;;;3.67;2.00;;;;;11.15;74.65;99279.09;5009703;27;47996;-89
2023/12/13 11:02:12;;;;;;;;;2.00;1.00;;;;;11.02;74.95;99273.03;4987726;28;45962;-88
2023/12/13 11:04:38;;;;;;;;;2.33;2.33;;;;;11.15;75.57;99287.06;5005690;28;45333;-90
2023/12/13 11:07:04;;;;;;;;;3.00;2.00;;;;;11.38;75.38;99311.84;5001417;28;45321;-90
2023/12/13 11:09:29;;;;;;;;;1.67;1.00;;;;;11.32;74.63;99290.19;5017747;27;46909;-89
2023/12/13 11:11:59;;;;;;;;;4.00;2.67;;;;;11.20;74.84;99265.44;5002588;27;44822;-89
2023/12/13 11:14:28;;;;;;;;;2.33;2.33;;;;;11.33;74.78;99276.78;5073042;27;45446;-90
2023/12/13 11:16:58;;;;;;;;;4.67;3.00;;;;;11.45;74.45;99269.59;5049861;27;45350;-89
2023/12/13 11:19:25;;;;;;;;;2.00;2.00;;;;;11.50;74.08;99262.13;4984021;27;45414;-89
2023/12/13 11:21:53;;;;;;;;;2.67;2.67;;;;;11.95;73.49;99315.28;5096153;27;45188;-88
2023/12/13 11:24:23;;;;;;;;;3.00;1.00;;;;;11.90;72.51;99313.00;5113249;27;45324;-89
2023/12/13 11:26:51;;;;;;;;;2.00;2.00;;;;;11.58;73.05;99277.44;5110822;27;44789;-89
2023/12/13 11:29:30;;;;;;;;;4.33;3.33;;;;;11.80;73.06;99323.56;5107478;27;45351;-91
2023/12/13 11:32:05;;;;;;;;;4.00;3.00;;;;;11.69;73.19;99314.72;5090780;27;45686;-90